createdAt,value
2018-09-29T10:35:57.209Z,67.5
2018-09-29T10:40:39.620Z,75.8
2018-09-29T10:45:39.765Z,78.3
2018-09-29T11:05:49.735Z,78.3
2018-09-29T11:10:44.746Z,78.3
2018-09-29T11:15:40.428Z,78.3
2018-09-29T11:20:40.416Z,97.5
2018-09-29T11:30:43.611Z,94.2
2018-09-29T11:35:40.035Z,108.3
2018-09-29T11:40:40.299Z,115
2018-09-29T11:45:39.811Z,123.3
2018-09-29T11:50:39.831Z,125
2018-09-29T11:55:40.174Z,130.8
2018-09-29T12:00:39.933Z,135.8
2018-09-29T12:05:39.888Z,146.7
2018-09-29T12:10:40.013Z,172.5
2018-09-29T12:15:40.145Z,178.3
2018-09-29T12:20:40.202Z,224.2
2018-09-29T12:25:39.757Z,259.2
2018-09-29T12:30:39.811Z,305
2018-09-29T12:35:39.918Z,335.8
2018-09-29T12:40:40.069Z,348.3
2018-09-29T12:45:39.959Z,369.2
2018-09-29T12:50:39.882Z,386.7
2018-09-29T12:55:39.829Z,375
2018-09-29T13:00:39.995Z,375.8
2018-09-29T13:05:39.950Z,370.8
2018-09-29T13:10:39.770Z,361.7
2018-09-29T13:15:39.736Z,357.5
2018-09-29T13:20:39.887Z,308.3
2018-09-29T13:25:39.801Z,95.8
2018-09-29T13:30:39.853Z,89.2
2018-09-29T13:35:39.705Z,86.7
2018-09-29T13:40:39.725Z,82.5
2018-09-29T13:45:39.753Z,78.3
2018-09-29T13:50:39.814Z,74.2
2018-09-29T13:55:39.886Z,72.5
2018-09-29T14:00:39.853Z,70
2018-09-29T14:05:39.606Z,68.3
2018-09-29T14:10:39.832Z,69.2
2018-09-29T14:15:39.724Z,68.3
2018-09-29T14:20:39.750Z,66.7
2018-09-29T14:25:39.889Z,65.8
2018-09-29T14:30:39.713Z,64.2
2018-09-29T14:35:39.680Z,62.5
2018-09-29T14:40:39.821Z,60.8
2018-09-29T14:45:39.642Z,60.8
2018-09-29T14:50:39.551Z,61.7
2018-09-29T14:55:39.706Z,62.5
2018-09-29T15:00:39.701Z,68.3
2018-09-29T15:05:39.839Z,80.8
2018-09-29T15:10:39.839Z,317.5
2018-09-29T15:15:39.506Z,349.2
2018-09-29T15:20:39.595Z,235.8
2018-09-29T15:25:39.765Z,62.5
2018-09-29T15:30:39.753Z,60.8
2018-09-29T15:35:39.849Z,67.5
2018-09-29T15:40:39.743Z,54.2
2018-09-29T15:45:39.508Z,52.5
2018-09-29T15:50:39.464Z,50.8
2018-09-29T15:55:39.807Z,50.8
2018-09-29T16:00:39.512Z,53.3
2018-09-29T16:05:39.434Z,50.8
2018-09-29T16:10:39.467Z,41.7
2018-09-29T16:15:39.801Z,38.3
2018-09-29T16:20:39.787Z,35.8
2018-09-29T16:25:39.775Z,32.5
2018-09-29T16:30:39.387Z,30.8
2018-09-29T16:35:39.682Z,27.5
2018-09-29T16:40:39.698Z,24.2
2018-09-29T16:45:39.678Z,21.7
2018-09-29T16:50:39.738Z,19.2
2018-09-29T16:55:39.366Z,16.7
2018-09-29T17:00:39.726Z,12.5
2018-09-29T17:05:39.585Z,9.2
2018-09-29T17:10:39.345Z,6.7
2018-09-29T17:15:39.394Z,4.2
2018-09-29T17:20:39.557Z,2.5
2018-09-29T17:25:39.707Z,1.7
2018-09-29T17:30:39.420Z,0.8
2018-09-29T17:35:39.619Z,0
2018-09-29T17:40:39.394Z,0
2018-09-29T17:45:39.426Z,0
2018-09-29T17:50:39.386Z,0
2018-09-29T17:55:39.573Z,0
2018-09-29T18:00:39.266Z,0
2018-09-29T18:05:39.307Z,0
2018-09-29T18:10:39.505Z,0
2018-09-29T18:15:39.430Z,0
2018-09-29T18:20:39.291Z,0
2018-09-29T18:25:39.259Z,0
2018-09-29T18:30:39.422Z,0
2018-09-29T18:35:39.620Z,0
2018-09-29T18:40:39.192Z,0
2018-09-29T18:45:39.316Z,0
2018-09-29T18:50:39.197Z,0
2018-09-29T18:55:39.189Z,0
2018-09-29T19:00:39.385Z,0
2018-09-29T19:05:39.500Z,0
2018-09-29T19:10:39.485Z,0
2018-09-29T19:15:39.326Z,0
2018-09-29T19:20:39.491Z,0
2018-09-29T19:25:39.463Z,0
2018-09-29T19:30:39.509Z,0
2018-09-29T19:35:39.526Z,0
2018-09-29T19:40:39.166Z,0
2018-09-29T19:45:39.566Z,0
2018-09-29T19:50:39.358Z,0
2018-09-29T19:55:39.101Z,0
2018-09-29T20:00:39.332Z,0
2018-09-29T20:05:39.441Z,0
2018-09-29T20:10:39.320Z,0
2018-09-29T20:15:39.210Z,0
2018-09-29T20:20:39.207Z,0
2018-09-29T20:25:39.184Z,0
2018-09-29T20:30:39.355Z,0
2018-09-29T20:35:39.184Z,0
2018-09-29T20:40:39.128Z,0
2018-09-29T20:45:39.400Z,0
2018-09-29T20:50:39.213Z,0
2018-09-29T20:55:39.227Z,0
2018-09-29T21:00:39.172Z,0
2018-09-29T21:05:39.144Z,0
2018-09-29T21:10:39.260Z,0
2018-09-29T21:15:40.104Z,0
2018-09-29T21:20:39.206Z,0
2018-09-29T21:25:39.054Z,0
2018-09-29T21:30:39.332Z,0
2018-09-29T21:35:39.239Z,0
2018-09-29T21:40:39.346Z,0
2018-09-29T21:45:38.988Z,0
2018-09-29T21:50:39.155Z,0
2018-09-29T21:55:39.005Z,0
2018-09-29T22:00:39.063Z,0
2018-09-29T22:05:39.222Z,0
2018-09-29T22:10:39.029Z,0
2018-09-29T22:15:39.158Z,0
2018-09-29T22:20:39.129Z,0
2018-09-29T22:25:38.993Z,0
2018-09-29T22:30:39.007Z,0
2018-09-29T22:35:39.153Z,0
2018-09-29T22:40:39.110Z,0
2018-09-29T22:45:39.041Z,0
2018-09-29T22:50:39.235Z,0
2018-09-29T22:55:39.241Z,0
2018-09-29T23:00:38.923Z,0
2018-09-29T23:05:39.076Z,0
2018-09-29T23:10:38.998Z,0
2018-09-29T23:15:38.934Z,0
2018-09-29T23:20:38.976Z,0
2018-09-29T23:25:39.203Z,0
2018-09-29T23:30:39.026Z,0
2018-09-29T23:35:39.084Z,0
2018-09-29T23:40:38.901Z,0
2018-09-29T23:45:38.804Z,0
2018-09-29T23:50:39.068Z,0
2018-09-29T23:55:39.109Z,0
